sensor_id;sensor_type;location;lat;lon;timestamp;P1;durP1;ratioP1;P2;durP2;ratioP2
59571;SDS011;59406;45.602;11.904;2023-05-07T00:00:21;4.70;;;2.60;;
59571;SDS011;59406;45.602;11.904;2023-05-07T00:02:47;5.75;;;2.80;;
59571;SDS011;59406;45.602;11.904;2023-05-07T00:05:13;6.57;;;2.85;;
59571;SDS011;59406;45.602;11.904;2023-05-07T00:07:39;6.32;;;2.70;;
59571;SDS011;59406;45.602;11.904;2023-05-07T00:10:05;6.10;;;3.20;;
59571;SDS011;59406;45.602;11.904;2023-05-07T00:12:32;4.80;;;2.53;;
59571;SDS011;59406;45.602;11.904;2023-05-07T00:14:59;6.03;;;3.00;;
59571;SDS011;59406;45.602;11.904;2023-05-07T00:17:26;6.05;;;2.80;;
59571;SDS011;59406;45.602;11.904;2023-05-07T00:19:52;6.53;;;3.00;;
59571;SDS011;59406;45.602;11.904;2023-05-07T00:22:18;5.75;;;2.92;;
59571;SDS011;59406;45.602;11.904;2023-05-07T00:24:44;5.65;;;3.10;;
59571;SDS011;59406;45.602;11.904;2023-05-07T00:27:10;5.53;;;2.90;;
59571;SDS011;59406;45.602;11.904;2023-05-07T00:29:36;5.97;;;2.63;;
59571;SDS011;59406;45.602;11.904;2023-05-07T00:32:02;5.65;;;2.97;;
59571;SDS011;59406;45.602;11.904;2023-05-07T00:34:28;5.18;;;2.78;;
59571;SDS011;59406;45.602;11.904;2023-05-07T00:36:54;6.35;;;2.83;;
59571;SDS011;59406;45.602;11.904;2023-05-07T00:39:20;5.73;;;3.07;;
59571;SDS011;59406;45.602;11.904;2023-05-07T00:41:46;5.78;;;2.72;;
59571;SDS011;59406;45.602;11.904;2023-05-07T00:44:12;5.00;;;2.50;;
59571;SDS011;59406;45.602;11.904;2023-05-07T00:46:39;5.63;;;2.80;;
59571;SDS011;59406;45.602;11.904;2023-05-07T00:49:05;5.90;;;2.53;;
59571;SDS011;59406;45.602;11.904;2023-05-07T00:51:32;6.00;;;2.75;;
59571;SDS011;59406;45.602;11.904;2023-05-07T00:53:59;5.47;;;2.50;;
59571;SDS011;59406;45.602;11.904;2023-05-07T00:56:27;4.60;;;2.28;;
59571;SDS011;59406;45.602;11.904;2023-05-07T00:58:53;5.03;;;2.70;;
59571;SDS011;59406;45.602;11.904;2023-05-07T01:01:19;6.35;;;2.40;;
59571;SDS011;59406;45.602;11.904;2023-05-07T01:03:45;6.15;;;2.95;;
59571;SDS011;59406;45.602;11.904;2023-05-07T01:06:11;5.40;;;2.60;;
59571;SDS011;59406;45.602;11.904;2023-05-07T01:08:38;5.43;;;2.70;;
59571;SDS011;59406;45.602;11.904;2023-05-07T01:11:06;6.22;;;2.75;;
59571;SDS011;59406;45.602;11.904;2023-05-07T01:13:33;5.03;;;3.00;;
59571;SDS011;59406;45.602;11.904;2023-05-07T01:16:00;6.05;;;3.45;;
59571;SDS011;59406;45.602;11.904;2023-05-07T01:18:26;5.78;;;2.85;;
59571;SDS011;59406;45.602;11.904;2023-05-07T01:20:55;6.47;;;3.53;;
59571;SDS011;59406;45.602;11.904;2023-05-07T01:23:24;5.80;;;3.25;;
59571;SDS011;59406;45.602;11.904;2023-05-07T01:25:53;5.60;;;3.30;;
59571;SDS011;59406;45.602;11.904;2023-05-07T01:28:19;7.13;;;3.40;;
59571;SDS011;59406;45.602;11.904;2023-05-07T01:30:47;6.90;;;3.00;;
59571;SDS011;59406;45.602;11.904;2023-05-07T01:33:26;6.20;;;2.70;;
59571;SDS011;59406;45.602;11.904;2023-05-07T01:35:56;7.18;;;3.92;;
59571;SDS011;59406;45.602;11.904;2023-05-07T01:38:25;5.13;;;2.90;;
59571;SDS011;59406;45.602;11.904;2023-05-07T01:40:52;5.40;;;3.28;;
59571;SDS011;59406;45.602;11.904;2023-05-07T01:43:18;6.13;;;3.50;;
59571;SDS011;59406;45.602;11.904;2023-05-07T01:45:44;5.90;;;3.50;;
59571;SDS011;59406;45.602;11.904;2023-05-07T01:48:11;6.05;;;3.38;;
59571;SDS011;59406;45.602;11.904;2023-05-07T01:50:38;7.47;;;3.55;;
59571;SDS011;59406;45.602;11.904;2023-05-07T01:53:04;6.47;;;3.42;;
59571;SDS011;59406;45.602;11.904;2023-05-07T01:55:30;6.30;;;3.60;;
59571;SDS011;59406;45.602;11.904;2023-05-07T01:57:56;6.05;;;3.30;;
59571;SDS011;59406;45.602;11.904;2023-05-07T02:00:22;5.50;;;3.00;;
59571;SDS011;59406;45.602;11.904;2023-05-07T02:02:48;5.63;;;3.45;;
59571;SDS011;59406;45.602;11.904;2023-05-07T02:05:14;5.37;;;2.90;;
59571;SDS011;59406;45.602;11.904;2023-05-07T02:07:39;5.85;;;3.03;;
59571;SDS011;59406;45.602;11.904;2023-05-07T02:10:05;5.03;;;3.00;;
59571;SDS011;59406;45.602;11.904;2023-05-07T02:12:31;5.85;;;3.05;;
59571;SDS011;59406;45.602;11.904;2023-05-07T02:14:57;4.97;;;2.70;;
59571;SDS011;59406;45.602;11.904;2023-05-07T02:17:23;6.07;;;2.87;;
59571;SDS011;59406;45.602;11.904;2023-05-07T02:19:49;5.45;;;2.90;;
59571;SDS011;59406;45.602;11.904;2023-05-07T02:22:15;5.53;;;2.80;;
59571;SDS011;59406;45.602;11.904;2023-05-07T02:24:41;5.00;;;2.20;;
59571;SDS011;59406;45.602;11.904;2023-05-07T02:27:07;4.75;;;2.80;;
59571;SDS011;59406;45.602;11.904;2023-05-07T02:29:33;4.75;;;2.63;;
59571;SDS011;59406;45.602;11.904;2023-05-07T02:31:59;4.87;;;2.60;;
59571;SDS011;59406;45.602;11.904;2023-05-07T02:34:27;5.35;;;2.88;;
59571;SDS011;59406;45.602;11.904;2023-05-07T02:36:53;4.75;;;2.55;;
59571;SDS011;59406;45.602;11.904;2023-05-07T02:39:20;4.93;;;2.63;;
59571;SDS011;59406;45.602;11.904;2023-05-07T02:41:46;6.65;;;3.30;;
59571;SDS011;59406;45.602;11.904;2023-05-07T02:44:13;5.00;;;2.37;;
59571;SDS011;59406;45.602;11.904;2023-05-07T02:46:38;5.07;;;2.50;;
59571;SDS011;59406;45.602;11.904;2023-05-07T02:49:04;5.60;;;2.35;;
59571;SDS011;59406;45.602;11.904;2023-05-07T02:51:31;6.18;;;2.42;;
59571;SDS011;59406;45.602;11.904;2023-05-07T02:53:57;5.55;;;2.50;;
59571;SDS011;59406;45.602;11.904;2023-05-07T02:56:23;5.00;;;2.50;;
59571;SDS011;59406;45.602;11.904;2023-05-07T02:58:51;6.32;;;3.00;;
59571;SDS011;59406;45.602;11.904;2023-05-07T03:01:16;6.00;;;2.70;;
59571;SDS011;59406;45.602;11.904;2023-05-07T03:03:43;5.50;;;3.20;;
59571;SDS011;59406;45.602;11.904;2023-05-07T03:06:09;6.07;;;3.33;;
59571;SDS011;59406;45.602;11.904;2023-05-07T03:08:36;5.80;;;2.63;;
59571;SDS011;59406;45.602;11.904;2023-05-07T03:11:02;6.05;;;2.92;;
59571;SDS011;59406;45.602;11.904;2023-05-07T03:13:28;5.10;;;2.93;;
59571;SDS011;59406;45.602;11.904;2023-05-07T03:15:53;5.65;;;2.97;;
59571;SDS011;59406;45.602;11.904;2023-05-07T03:18:20;5.53;;;3.55;;
59571;SDS011;59406;45.602;11.904;2023-05-07T03:20:46;6.07;;;3.50;;
59571;SDS011;59406;45.602;11.904;2023-05-07T03:23:13;5.17;;;3.30;;
59571;SDS011;59406;45.602;11.904;2023-05-07T03:25:39;6.30;;;3.47;;
59571;SDS011;59406;45.602;11.904;2023-05-07T03:28:04;6.30;;;3.20;;
59571;SDS011;59406;45.602;11.904;2023-05-07T03:30:30;6.23;;;3.47;;
59571;SDS011;59406;45.602;11.904;2023-05-07T03:32:57;7.20;;;3.90;;
59571;SDS011;59406;45.602;11.904;2023-05-07T03:35:22;6.75;;;3.08;;
59571;SDS011;59406;45.602;11.904;2023-05-07T03:37:48;5.60;;;2.97;;
59571;SDS011;59406;45.602;11.904;2023-05-07T03:40:14;5.07;;;3.22;;
59571;SDS011;59406;45.602;11.904;2023-05-07T03:42:40;5.57;;;3.45;;
59571;SDS011;59406;45.602;11.904;2023-05-07T03:45:06;5.30;;;3.05;;
59571;SDS011;59406;45.602;11.904;2023-05-07T03:47:33;6.77;;;3.90;;
59571;SDS011;59406;45.602;11.904;2023-05-07T03:49:59;6.40;;;3.08;;
59571;SDS011;59406;45.602;11.904;2023-05-07T03:52:24;7.43;;;3.00;;
59571;SDS011;59406;45.602;11.904;2023-05-07T03:54:52;7.00;;;3.20;;
59571;SDS011;59406;45.602;11.904;2023-05-07T03:57:18;5.50;;;3.03;;
59571;SDS011;59406;45.602;11.904;2023-05-07T03:59:45;5.50;;;3.17;;
59571;SDS011;59406;45.602;11.904;2023-05-07T04:02:11;5.68;;;2.80;;
59571;SDS011;59406;45.602;11.904;2023-05-07T04:04:37;5.75;;;2.97;;
59571;SDS011;59406;45.602;11.904;2023-05-07T04:07:03;6.57;;;2.88;;
59571;SDS011;59406;45.602;11.904;2023-05-07T04:09:29;4.40;;;2.50;;
59571;SDS011;59406;45.602;11.904;2023-05-07T04:11:55;4.70;;;2.33;;
59571;SDS011;59406;45.602;11.904;2023-05-07T04:14:21;5.25;;;2.83;;
59571;SDS011;59406;45.602;11.904;2023-05-07T04:16:47;5.05;;;3.00;;
59571;SDS011;59406;45.602;11.904;2023-05-07T04:19:13;5.10;;;2.70;;
59571;SDS011;59406;45.602;11.904;2023-05-07T04:21:39;5.30;;;2.80;;
59571;SDS011;59406;45.602;11.904;2023-05-07T04:24:05;5.18;;;2.95;;
59571;SDS011;59406;45.602;11.904;2023-05-07T04:26:32;5.97;;;3.40;;
59571;SDS011;59406;45.602;11.904;2023-05-07T04:28:57;5.40;;;3.10;;
59571;SDS011;59406;45.602;11.904;2023-05-07T04:31:24;7.32;;;3.30;;
59571;SDS011;59406;45.602;11.904;2023-05-07T04:33:50;5.05;;;3.05;;
59571;SDS011;59406;45.602;11.904;2023-05-07T04:36:16;5.35;;;2.90;;
59571;SDS011;59406;45.602;11.904;2023-05-07T04:38:42;5.23;;;2.63;;
59571;SDS011;59406;45.602;11.904;2023-05-07T04:41:08;6.55;;;3.47;;
59571;SDS011;59406;45.602;11.904;2023-05-07T04:43:35;7.30;;;3.65;;
59571;SDS011;59406;45.602;11.904;2023-05-07T04:46:01;6.55;;;3.45;;
59571;SDS011;59406;45.602;11.904;2023-05-07T04:48:26;5.60;;;2.53;;
59571;SDS011;59406;45.602;11.904;2023-05-07T04:50:54;5.97;;;2.97;;
59571;SDS011;59406;45.602;11.904;2023-05-07T04:53:20;5.68;;;2.80;;
59571;SDS011;59406;45.602;11.904;2023-05-07T04:55:46;7.80;;;3.38;;
59571;SDS011;59406;45.602;11.904;2023-05-07T04:58:12;6.82;;;3.08;;
59571;SDS011;59406;45.602;11.904;2023-05-07T05:00:39;5.88;;;2.60;;
59571;SDS011;59406;45.602;11.904;2023-05-07T06:56:22;7.20;;;4.57;;
59571;SDS011;59406;45.602;11.904;2023-05-07T06:58:48;8.37;;;4.80;;
59571;SDS011;59406;45.602;11.904;2023-05-07T07:01:14;9.40;;;4.40;;
59571;SDS011;59406;45.602;11.904;2023-05-07T07:03:40;7.82;;;4.53;;
59571;SDS011;59406;45.602;11.904;2023-05-07T07:06:06;6.70;;;3.73;;
59571;SDS011;59406;45.602;11.904;2023-05-07T07:10:17;4.88;;;2.65;;
59571;SDS011;59406;45.602;11.904;2023-05-07T07:12:43;6.03;;;3.33;;
59571;SDS011;59406;45.602;11.904;2023-05-07T07:15:09;6.35;;;3.95;;
59571;SDS011;59406;45.602;11.904;2023-05-07T07:17:35;6.05;;;3.78;;
59571;SDS011;59406;45.602;11.904;2023-05-07T07:20:01;7.73;;;3.90;;
59571;SDS011;59406;45.602;11.904;2023-05-07T07:22:28;7.55;;;3.67;;
59571;SDS011;59406;45.602;11.904;2023-05-07T07:24:54;7.72;;;4.18;;
59571;SDS011;59406;45.602;11.904;2023-05-07T07:27:19;7.37;;;3.87;;
59571;SDS011;59406;45.602;11.904;2023-05-07T07:29:45;6.00;;;3.43;;
59571;SDS011;59406;45.602;11.904;2023-05-07T07:32:11;5.93;;;3.63;;
59571;SDS011;59406;45.602;11.904;2023-05-07T07:34:37;6.37;;;3.90;;
59571;SDS011;59406;45.602;11.904;2023-05-07T07:37:03;6.97;;;3.67;;
59571;SDS011;59406;45.602;11.904;2023-05-07T07:39:33;7.82;;;3.95;;
59571;SDS011;59406;45.602;11.904;2023-05-07T07:42:02;6.97;;;4.37;;
59571;SDS011;59406;45.602;11.904;2023-05-07T07:44:28;7.22;;;4.13;;
59571;SDS011;59406;45.602;11.904;2023-05-07T07:46:54;7.75;;;3.70;;
59571;SDS011;59406;45.602;11.904;2023-05-07T07:49:20;6.22;;;3.33;;
59571;SDS011;59406;45.602;11.904;2023-05-07T07:51:46;7.87;;;3.83;;
59571;SDS011;59406;45.602;11.904;2023-05-07T07:54:11;8.80;;;4.60;;
59571;SDS011;59406;45.602;11.904;2023-05-07T07:56:37;7.50;;;4.83;;
59571;SDS011;59406;45.602;11.904;2023-05-07T07:59:03;5.85;;;3.85;;
59571;SDS011;59406;45.602;11.904;2023-05-07T08:01:29;7.70;;;3.80;;
59571;SDS011;59406;45.602;11.904;2023-05-07T08:03:56;9.73;;;6.33;;
59571;SDS011;59406;45.602;11.904;2023-05-07T08:06:23;7.45;;;3.72;;
59571;SDS011;59406;45.602;11.904;2023-05-07T08:08:51;6.50;;;3.88;;
59571;SDS011;59406;45.602;11.904;2023-05-07T08:11:17;5.30;;;2.97;;
59571;SDS011;59406;45.602;11.904;2023-05-07T08:13:43;6.72;;;3.33;;
59571;SDS011;59406;45.602;11.904;2023-05-07T08:16:10;7.30;;;3.43;;
59571;SDS011;59406;45.602;11.904;2023-05-07T08:18:36;6.35;;;3.00;;
59571;SDS011;59406;45.602;11.904;2023-05-07T08:21:02;6.15;;;3.20;;
59571;SDS011;59406;45.602;11.904;2023-05-07T08:23:28;6.75;;;3.92;;
59571;SDS011;59406;45.602;11.904;2023-05-07T08:25:54;8.40;;;5.73;;
59571;SDS011;59406;45.602;11.904;2023-05-07T08:28:20;5.97;;;3.40;;
59571;SDS011;59406;45.602;11.904;2023-05-07T08:31:44;6.68;;;2.90;;
59571;SDS011;59406;45.602;11.904;2023-05-07T08:34:10;9.43;;;5.60;;
59571;SDS011;59406;45.602;11.904;2023-05-07T08:36:36;7.00;;;3.92;;
59571;SDS011;59406;45.602;11.904;2023-05-07T08:39:02;5.68;;;3.40;;
59571;SDS011;59406;45.602;11.904;2023-05-07T08:41:28;7.60;;;4.43;;
59571;SDS011;59406;45.602;11.904;2023-05-07T08:43:55;6.28;;;3.47;;
59571;SDS011;59406;45.602;11.904;2023-05-07T08:46:25;8.30;;;3.58;;
59571;SDS011;59406;45.602;11.904;2023-05-07T08:48:56;6.65;;;3.15;;
59571;SDS011;59406;45.602;11.904;2023-05-07T08:51:22;8.57;;;5.40;;
59571;SDS011;59406;45.602;11.904;2023-05-07T08:53:48;10.15;;;3.95;;
59571;SDS011;59406;45.602;11.904;2023-05-07T08:56:15;7.80;;;3.95;;
59571;SDS011;59406;45.602;11.904;2023-05-07T08:58:42;6.78;;;3.53;;
59571;SDS011;59406;45.602;11.904;2023-05-07T09:01:12;7.43;;;3.88;;
59571;SDS011;59406;45.602;11.904;2023-05-07T09:03:39;6.00;;;3.70;;
59571;SDS011;59406;45.602;11.904;2023-05-07T09:06:06;5.10;;;2.60;;
59571;SDS011;59406;45.602;11.904;2023-05-07T09:08:33;4.78;;;2.78;;
59571;SDS011;59406;45.602;11.904;2023-05-07T09:10:59;4.78;;;2.50;;
59571;SDS011;59406;45.602;11.904;2023-05-07T09:13:27;5.72;;;3.65;;
59571;SDS011;59406;45.602;11.904;2023-05-07T09:15:53;6.53;;;4.03;;
59571;SDS011;59406;45.602;11.904;2023-05-07T09:18:19;6.20;;;3.25;;
59571;SDS011;59406;45.602;11.904;2023-05-07T09:20:45;6.38;;;3.05;;
59571;SDS011;59406;45.602;11.904;2023-05-07T09:23:11;7.07;;;3.13;;
59571;SDS011;59406;45.602;11.904;2023-05-07T09:25:37;5.97;;;2.95;;
59571;SDS011;59406;45.602;11.904;2023-05-07T09:28:03;5.70;;;2.83;;
59571;SDS011;59406;45.602;11.904;2023-05-07T09:30:35;6.57;;;2.85;;
59571;SDS011;59406;45.602;11.904;2023-05-07T09:33:02;7.18;;;3.40;;
59571;SDS011;59406;45.602;11.904;2023-05-07T09:35:29;7.30;;;3.60;;
59571;SDS011;59406;45.602;11.904;2023-05-07T09:37:56;5.85;;;3.50;;
59571;SDS011;59406;45.602;11.904;2023-05-07T09:40:24;5.53;;;3.30;;
59571;SDS011;59406;45.602;11.904;2023-05-07T09:42:52;7.18;;;3.90;;
59571;SDS011;59406;45.602;11.904;2023-05-07T09:45:25;5.63;;;3.47;;
59571;SDS011;59406;45.602;11.904;2023-05-07T09:47:55;6.57;;;3.63;;
59571;SDS011;59406;45.602;11.904;2023-05-07T09:50:32;7.90;;;4.32;;
59571;SDS011;59406;45.602;11.904;2023-05-07T09:53:04;7.10;;;4.45;;
59571;SDS011;59406;45.602;11.904;2023-05-07T09:55:30;7.95;;;4.70;;
59571;SDS011;59406;45.602;11.904;2023-05-07T09:57:56;6.60;;;4.73;;
59571;SDS011;59406;45.602;11.904;2023-05-07T10:00:23;7.93;;;4.22;;
59571;SDS011;59406;45.602;11.904;2023-05-07T10:02:53;7.47;;;4.80;;
59571;SDS011;59406;45.602;11.904;2023-05-07T10:05:22;9.40;;;5.40;;
59571;SDS011;59406;45.602;11.904;2023-05-07T10:07:50;5.85;;;3.60;;
59571;SDS011;59406;45.602;11.904;2023-05-07T10:10:17;8.80;;;5.20;;
59571;SDS011;59406;45.602;11.904;2023-05-07T10:12:43;8.45;;;5.80;;
59571;SDS011;59406;45.602;11.904;2023-05-07T10:15:10;9.00;;;6.10;;
59571;SDS011;59406;45.602;11.904;2023-05-07T10:17:37;8.25;;;5.50;;
59571;SDS011;59406;45.602;11.904;2023-05-07T10:20:05;7.60;;;5.13;;
59571;SDS011;59406;45.602;11.904;2023-05-07T10:22:39;10.40;;;6.57;;
59571;SDS011;59406;45.602;11.904;2023-05-07T10:25:14;9.35;;;6.47;;
59571;SDS011;59406;45.602;11.904;2023-05-07T10:27:50;8.65;;;5.13;;
59571;SDS011;59406;45.602;11.904;2023-05-07T10:33:06;8.48;;;6.22;;
59571;SDS011;59406;45.602;11.904;2023-05-07T10:35:43;14.00;;;9.10;;
59571;SDS011;59406;45.602;11.904;2023-05-07T10:38:12;10.63;;;6.78;;
59571;SDS011;59406;45.602;11.904;2023-05-07T10:40:38;9.02;;;7.15;;
59571;SDS011;59406;45.602;11.904;2023-05-07T10:43:04;11.40;;;7.78;;
59571;SDS011;59406;45.602;11.904;2023-05-07T10:45:31;9.00;;;7.63;;
59571;SDS011;59406;45.602;11.904;2023-05-07T10:50:33;9.32;;;6.45;;
59571;SDS011;59406;45.602;11.904;2023-05-07T10:58:24;9.82;;;6.07;;
59571;SDS011;59406;45.602;11.904;2023-05-07T11:00:57;8.87;;;6.23;;
59571;SDS011;59406;45.602;11.904;2023-05-07T11:03:24;9.63;;;7.15;;
59571;SDS011;59406;45.602;11.904;2023-05-07T11:11:18;8.07;;;6.88;;
59571;SDS011;59406;45.602;11.904;2023-05-07T11:13:47;9.07;;;6.13;;
59571;SDS011;59406;45.602;11.904;2023-05-07T11:16:21;9.10;;;6.60;;
59571;SDS011;59406;45.602;11.904;2023-05-07T11:18:52;8.90;;;6.40;;
59571;SDS011;59406;45.602;11.904;2023-05-07T11:21:32;9.10;;;6.88;;
59571;SDS011;59406;45.602;11.904;2023-05-07T11:24:06;9.95;;;6.95;;
59571;SDS011;59406;45.602;11.904;2023-05-07T11:29:13;8.25;;;7.07;;
59571;SDS011;59406;45.602;11.904;2023-05-07T11:31:43;9.38;;;6.57;;
59571;SDS011;59406;45.602;11.904;2023-05-07T11:34:14;9.68;;;7.80;;
59571;SDS011;59406;45.602;11.904;2023-05-07T11:36:46;8.55;;;6.53;;
59571;SDS011;59406;45.602;11.904;2023-05-07T11:39:26;9.63;;;6.73;;
59571;SDS011;59406;45.602;11.904;2023-05-07T11:41:58;9.75;;;7.05;;
59571;SDS011;59406;45.602;11.904;2023-05-07T11:44:25;9.38;;;7.90;;
59571;SDS011;59406;45.602;11.904;2023-05-07T11:47:04;13.23;;;11.40;;
59571;SDS011;59406;45.602;11.904;2023-05-07T11:49:31;11.65;;;9.65;;
59571;SDS011;59406;45.602;11.904;2023-05-07T11:51:57;12.80;;;9.30;;
59571;SDS011;59406;45.602;11.904;2023-05-07T11:54:23;13.35;;;10.13;;
59571;SDS011;59406;45.602;11.904;2023-05-07T11:56:49;12.65;;;9.57;;
59571;SDS011;59406;45.602;11.904;2023-05-07T11:59:18;13.13;;;11.83;;
59571;SDS011;59406;45.602;11.904;2023-05-07T12:01:47;12.18;;;11.07;;
59571;SDS011;59406;45.602;11.904;2023-05-07T12:04:12;13.50;;;12.20;;
59571;SDS011;59406;45.602;11.904;2023-05-07T12:08:08;11.27;;;10.18;;
59571;SDS011;59406;45.602;11.904;2023-05-07T12:10:34;9.30;;;8.40;;
59571;SDS011;59406;45.602;11.904;2023-05-07T12:13:13;9.30;;;8.40;;
59571;SDS011;59406;45.602;11.904;2023-05-07T12:15:46;11.40;;;10.30;;
59571;SDS011;59406;45.602;11.904;2023-05-07T12:18:15;10.38;;;9.35;;
59571;SDS011;59406;45.602;11.904;2023-05-07T12:20:41;10.48;;;9.32;;
59571;SDS011;59406;45.602;11.904;2023-05-07T12:23:08;9.73;;;8.83;;
59571;SDS011;59406;45.602;11.904;2023-05-07T12:25:34;9.18;;;8.27;;
59571;SDS011;59406;45.602;11.904;2023-05-07T12:28:05;11.68;;;10.65;;
59571;SDS011;59406;45.602;11.904;2023-05-07T12:30:42;11.32;;;9.20;;
59571;SDS011;59406;45.602;11.904;2023-05-07T12:33:09;10.68;;;9.57;;
59571;SDS011;59406;45.602;11.904;2023-05-07T12:35:37;10.70;;;9.60;;
59571;SDS011;59406;45.602;11.904;2023-05-07T12:38:08;12.23;;;10.65;;
59571;SDS011;59406;45.602;11.904;2023-05-07T12:40:45;10.43;;;9.38;;
59571;SDS011;59406;45.602;11.904;2023-05-07T12:43:28;11.13;;;10.10;;
59571;SDS011;59406;45.602;11.904;2023-05-07T12:45:55;9.85;;;8.80;;
59571;SDS011;59406;45.602;11.904;2023-05-07T12:48:25;11.93;;;9.83;;
59571;SDS011;59406;45.602;11.904;2023-05-07T12:50:55;11.32;;;10.07;;
59571;SDS011;59406;45.602;11.904;2023-05-07T12:53:25;13.07;;;8.93;;
59571;SDS011;59406;45.602;11.904;2023-05-07T12:55:53;10.10;;;9.10;;
59571;SDS011;59406;45.602;11.904;2023-05-07T12:58:25;10.52;;;8.68;;
59571;SDS011;59406;45.602;11.904;2023-05-07T13:00:56;11.37;;;10.17;;
59571;SDS011;59406;45.602;11.904;2023-05-07T13:03:29;11.00;;;8.85;;
59571;SDS011;59406;45.602;11.904;2023-05-07T13:05:58;12.52;;;9.18;;
59571;SDS011;59406;45.602;11.904;2023-05-07T13:10:51;9.20;;;7.70;;
59571;SDS011;59406;45.602;11.904;2023-05-07T13:13:18;8.60;;;6.45;;
59571;SDS011;59406;45.602;11.904;2023-05-07T13:15:45;8.52;;;6.72;;
59571;SDS011;59406;45.602;11.904;2023-05-07T13:18:12;11.57;;;7.45;;
59571;SDS011;59406;45.602;11.904;2023-05-07T13:20:38;10.50;;;7.33;;
59571;SDS011;59406;45.602;11.904;2023-05-07T13:23:04;10.00;;;7.90;;
59571;SDS011;59406;45.602;11.904;2023-05-07T13:25:30;9.57;;;7.05;;
59571;SDS011;59406;45.602;11.904;2023-05-07T13:27:56;12.23;;;7.68;;
59571;SDS011;59406;45.602;11.904;2023-05-07T13:30:22;12.02;;;10.02;;
59571;SDS011;59406;45.602;11.904;2023-05-07T13:32:48;10.97;;;7.83;;
59571;SDS011;59406;45.602;11.904;2023-05-07T13:35:15;9.00;;;6.72;;
59571;SDS011;59406;45.602;11.904;2023-05-07T13:37:42;9.77;;;8.18;;
59571;SDS011;59406;45.602;11.904;2023-05-07T13:40:07;9.98;;;7.93;;
59571;SDS011;59406;45.602;11.904;2023-05-07T13:42:34;11.63;;;9.37;;
59571;SDS011;59406;45.602;11.904;2023-05-07T13:45:00;11.63;;;8.60;;
59571;SDS011;59406;45.602;11.904;2023-05-07T13:47:28;13.07;;;10.95;;
59571;SDS011;59406;45.602;11.904;2023-05-07T13:49:54;11.93;;;9.35;;
59571;SDS011;59406;45.602;11.904;2023-05-07T13:52:19;10.33;;;8.03;;
59571;SDS011;59406;45.602;11.904;2023-05-07T13:54:45;8.30;;;6.60;;
59571;SDS011;59406;45.602;11.904;2023-05-07T13:57:11;11.68;;;9.43;;
59571;SDS011;59406;45.602;11.904;2023-05-07T13:59:37;11.70;;;6.60;;
59571;SDS011;59406;45.602;11.904;2023-05-07T14:02:03;11.52;;;9.27;;
59571;SDS011;59406;45.602;11.904;2023-05-07T14:04:30;10.77;;;6.85;;
59571;SDS011;59406;45.602;11.904;2023-05-07T14:06:56;11.87;;;8.57;;
59571;SDS011;59406;45.602;11.904;2023-05-07T14:09:22;10.90;;;8.40;;
59571;SDS011;59406;45.602;11.904;2023-05-07T14:11:47;10.50;;;7.93;;
59571;SDS011;59406;45.602;11.904;2023-05-07T14:14:16;10.50;;;7.88;;
59571;SDS011;59406;45.602;11.904;2023-05-07T14:16:43;11.07;;;8.20;;
59571;SDS011;59406;45.602;11.904;2023-05-07T14:19:10;10.45;;;7.63;;
59571;SDS011;59406;45.602;11.904;2023-05-07T14:21:37;12.65;;;8.18;;
59571;SDS011;59406;45.602;11.904;2023-05-07T14:24:03;9.15;;;6.90;;
59571;SDS011;59406;45.602;11.904;2023-05-07T14:26:29;11.88;;;9.63;;
59571;SDS011;59406;45.602;11.904;2023-05-07T14:28:55;9.93;;;7.03;;
59571;SDS011;59406;45.602;11.904;2023-05-07T14:31:23;10.77;;;8.40;;
59571;SDS011;59406;45.602;11.904;2023-05-07T14:33:49;12.73;;;9.90;;
59571;SDS011;59406;45.602;11.904;2023-05-07T14:36:16;10.73;;;8.40;;
59571;SDS011;59406;45.602;11.904;2023-05-07T14:38:42;8.80;;;7.03;;
59571;SDS011;59406;45.602;11.904;2023-05-07T14:41:08;10.37;;;7.83;;
59571;SDS011;59406;45.602;11.904;2023-05-07T14:43:34;10.55;;;8.18;;
59571;SDS011;59406;45.602;11.904;2023-05-07T14:46:01;9.68;;;7.43;;
59571;SDS011;59406;45.602;11.904;2023-05-07T14:48:28;11.02;;;7.50;;
59571;SDS011;59406;45.602;11.904;2023-05-07T14:50:54;11.13;;;7.57;;
59571;SDS011;59406;45.602;11.904;2023-05-07T14:53:21;9.97;;;7.97;;
59571;SDS011;59406;45.602;11.904;2023-05-07T14:55:47;10.95;;;8.48;;
59571;SDS011;59406;45.602;11.904;2023-05-07T14:58:14;9.52;;;7.55;;
59571;SDS011;59406;45.602;11.904;2023-05-07T15:00:40;10.73;;;7.78;;
59571;SDS011;59406;45.602;11.904;2023-05-07T15:03:09;10.63;;;7.35;;
59571;SDS011;59406;45.602;11.904;2023-05-07T15:05:36;8.80;;;6.90;;
59571;SDS011;59406;45.602;11.904;2023-05-07T15:08:03;10.27;;;8.25;;
59571;SDS011;59406;45.602;11.904;2023-05-07T15:10:29;9.52;;;7.05;;
59571;SDS011;59406;45.602;11.904;2023-05-07T15:12:55;10.00;;;8.05;;
59571;SDS011;59406;45.602;11.904;2023-05-07T15:15:20;10.67;;;8.07;;
59571;SDS011;59406;45.602;11.904;2023-05-07T15:17:46;10.82;;;8.25;;
59571;SDS011;59406;45.602;11.904;2023-05-07T15:20:13;14.30;;;8.45;;
59571;SDS011;59406;45.602;11.904;2023-05-07T15:22:38;11.88;;;8.23;;
59571;SDS011;59406;45.602;11.904;2023-05-07T15:25:06;10.10;;;6.77;;
59571;SDS011;59406;45.602;11.904;2023-05-07T15:27:32;9.90;;;6.80;;
59571;SDS011;59406;45.602;11.904;2023-05-07T15:29:58;11.25;;;7.70;;
59571;SDS011;59406;45.602;11.904;2023-05-07T15:32:24;8.85;;;7.13;;
59571;SDS011;59406;45.602;11.904;2023-05-07T15:34:50;12.57;;;9.77;;
59571;SDS011;59406;45.602;11.904;2023-05-07T15:37:16;12.25;;;8.43;;
59571;SDS011;59406;45.602;11.904;2023-05-07T15:39:43;11.10;;;8.50;;
59571;SDS011;59406;45.602;11.904;2023-05-07T15:42:11;9.15;;;7.80;;
59571;SDS011;59406;45.602;11.904;2023-05-07T15:44:37;8.80;;;7.00;;
59571;SDS011;59406;45.602;11.904;2023-05-07T15:47:03;10.77;;;7.30;;
59571;SDS011;59406;45.602;11.904;2023-05-07T15:49:29;12.90;;;7.47;;
59571;SDS011;59406;45.602;11.904;2023-05-07T15:51:55;10.35;;;7.70;;
59571;SDS011;59406;45.602;11.904;2023-05-07T15:54:22;10.60;;;7.65;;
59571;SDS011;59406;45.602;11.904;2023-05-07T15:56:49;10.53;;;6.90;;
59571;SDS011;59406;45.602;11.904;2023-05-07T15:59:16;11.48;;;7.45;;
59571;SDS011;59406;45.602;11.904;2023-05-07T16:01:42;11.45;;;8.02;;
59571;SDS011;59406;45.602;11.904;2023-05-07T16:04:09;11.40;;;8.85;;
59571;SDS011;59406;45.602;11.904;2023-05-07T16:06:35;11.15;;;7.63;;
59571;SDS011;59406;45.602;11.904;2023-05-07T16:09:02;13.07;;;9.17;;
59571;SDS011;59406;45.602;11.904;2023-05-07T16:11:29;9.70;;;7.65;;
59571;SDS011;59406;45.602;11.904;2023-05-07T16:13:55;12.23;;;8.38;;
59571;SDS011;59406;45.602;11.904;2023-05-07T16:16:21;13.05;;;8.73;;
59571;SDS011;59406;45.602;11.904;2023-05-07T16:18:50;11.07;;;8.27;;
59571;SDS011;59406;45.602;11.904;2023-05-07T16:21:16;10.90;;;6.97;;
59571;SDS011;59406;45.602;11.904;2023-05-07T16:23:42;12.13;;;9.80;;
59571;SDS011;59406;45.602;11.904;2023-05-07T16:26:08;10.57;;;8.20;;
59571;SDS011;59406;45.602;11.904;2023-05-07T16:28:34;9.63;;;7.60;;
59571;SDS011;59406;45.602;11.904;2023-05-07T16:31:00;12.53;;;8.03;;
59571;SDS011;59406;45.602;11.904;2023-05-07T16:33:26;11.80;;;8.93;;
59571;SDS011;59406;45.602;11.904;2023-05-07T16:35:53;11.20;;;8.57;;
59571;SDS011;59406;45.602;11.904;2023-05-07T16:38:19;12.25;;;8.73;;
59571;SDS011;59406;45.602;11.904;2023-05-07T16:40:46;12.73;;;6.97;;
59571;SDS011;59406;45.602;11.904;2023-05-07T16:43:12;6.97;;;4.93;;
59571;SDS011;59406;45.602;11.904;2023-05-07T16:45:37;8.15;;;5.80;;
59571;SDS011;59406;45.602;11.904;2023-05-07T16:48:03;6.60;;;4.27;;